Time;durP1;ratioP1;P1;durP2;ratioP2;P2;SDS_P1;SDS_P2;PMS_P1;PMS_P2;Temp;Humidity;BMP_temperature;BMP_pressure;BME280_temperature;BME280_humidity;BME280_pressure;Samples;Min_cycle;Max_cycle;Signal;HPM_P1;HPM_P2
2022/12/31 00:01:21;;;;;;;21.05;2.88;;;10.80;99.90;;;;;;5012884;28;20021;-79
2022/12/31 00:03:47;;;;;;;21.20;2.67;;;10.80;99.90;;;;;;5022345;28;20038;-79
2022/12/31 00:06:20;;;;;;;24.38;2.72;;;10.80;99.90;;;;;;5033059;28;20357;-80
2022/12/31 00:08:48;;;;;;;24.65;2.25;;;10.80;99.90;;;;;;5036452;28;20383;-78
2022/12/31 00:11:14;;;;;;;21.48;2.35;;;10.80;99.90;;;;;;5004487;28;20116;-78
2022/12/31 00:13:40;;;;;;;22.40;2.72;;;10.80;99.90;;;;;;5004221;28;20032;-79
2022/12/31 00:16:14;;;;;;;20.33;2.33;;;10.90;99.90;;;;;;5021149;28;20025;-79
2022/12/31 00:18:44;;;;;;;18.20;2.00;;;10.80;99.90;;;;;;5038904;28;20511;-78
2022/12/31 00:21:10;;;;;;;21.27;2.20;;;10.80;99.90;;;;;;5007708;28;20078;-78
2022/12/31 00:23:36;;;;;;;13.40;1.73;;;10.80;99.90;;;;;;5016346;28;20044;-79
2022/12/31 00:26:08;;;;;;;19.13;2.08;;;10.80;99.90;;;;;;4993237;28;20497;-79
2022/12/31 00:28:35;;;;;;;22.52;2.22;;;10.80;99.90;;;;;;5026646;28;20064;-79
2022/12/31 00:31:10;;;;;;;14.77;1.83;;;10.80;99.90;;;;;;5031775;28;20052;-79
2022/12/31 00:33:36;;;;;;;15.98;1.98;;;10.80;99.90;;;;;;5020773;28;20036;-79
2022/12/31 00:36:10;;;;;;;16.65;2.15;;;10.90;99.90;;;;;;5008562;28;20037;-79
2022/12/31 00:38:37;;;;;;;20.55;2.05;;;10.80;99.90;;;;;;5039137;28;20423;-79
2022/12/31 00:41:04;;;;;;;24.27;2.47;;;10.80;99.90;;;;;;5040382;28;20033;-79
2022/12/31 00:43:29;;;;;;;21.27;1.90;;;10.80;99.90;;;;;;5040711;28;20085;-79
2022/12/31 00:45:55;;;;;;;15.57;1.98;;;10.70;99.90;;;;;;5022645;28;20174;-79
2022/12/31 00:48:21;;;;;;;12.75;1.60;;;10.70;99.90;;;;;;5010387;28;20484;-79
2022/12/31 00:50:46;;;;;;;14.50;2.03;;;10.70;99.90;;;;;;5029801;28;20032;-79
2022/12/31 00:53:12;;;;;;;20.95;2.08;;;10.80;99.90;;;;;;5037138;28;20086;-79
2022/12/31 00:55:37;;;;;;;16.27;1.92;;;10.80;99.90;;;;;;5007527;28;20114;-79
2022/12/31 00:58:03;;;;;;;10.50;1.40;;;10.70;99.90;;;;;;5000661;28;20092;-79
2022/12/31 01:00:29;;;;;;;14.80;1.60;;;10.80;99.90;;;;;;5012467;28;20035;-79
2022/12/31 01:02:54;;;;;;;14.32;1.48;;;10.70;99.90;;;;;;5035062;28;20029;-79
2022/12/31 01:05:20;;;;;;;12.00;1.50;;;10.80;99.90;;;;;;5005290;28;20090;-79
2022/12/31 01:07:46;;;;;;;11.80;2.55;;;10.80;99.90;;;;;;5003575;28;20033;-79
2022/12/31 01:10:11;;;;;;;9.70;1.42;;;10.80;99.90;;;;;;5032530;28;20036;-79
2022/12/31 01:12:37;;;;;;;16.63;1.40;;;10.70;99.90;;;;;;5024838;28;20030;-79
2022/12/31 01:15:03;;;;;;;12.60;1.35;;;10.70;99.90;;;;;;5011946;28;20081;-79
2022/12/31 01:17:28;;;;;;;11.35;1.45;;;10.70;99.90;;;;;;5006140;28;20048;-80
2022/12/31 01:19:54;;;;;;;12.82;1.13;;;10.70;99.90;;;;;;5039477;28;20033;-79
2022/12/31 01:22:20;;;;;;;12.57;1.58;;;10.60;99.90;;;;;;5021850;28;20713;-79
2022/12/31 01:24:45;;;;;;;10.65;1.25;;;10.60;99.90;;;;;;5039148;28;20029;-80
2022/12/31 01:27:11;;;;;;;8.57;1.08;;;10.60;99.90;;;;;;5029105;28;20025;-78
2022/12/31 01:29:36;;;;;;;15.70;1.70;;;10.60;99.90;;;;;;5024103;28;20079;-79
2022/12/31 01:32:02;;;;;;;10.60;1.33;;;10.60;99.90;;;;;;4994061;28;20060;-79
2022/12/31 01:34:28;;;;;;;14.20;1.20;;;10.60;99.90;;;;;;5003836;28;20037;-79
2022/12/31 01:36:53;;;;;;;9.52;1.90;;;10.60;99.90;;;;;;5023140;28;20041;-79
2022/12/31 01:39:19;;;;;;;9.20;1.17;;;10.60;99.90;;;;;;5020147;28;20048;-78
2022/12/31 01:41:46;;;;;;;6.20;1.13;;;10.60;99.90;;;;;;5042397;28;20028;-78
2022/12/31 01:44:11;;;;;;;15.50;1.25;;;10.60;99.90;;;;;;5043138;28;20740;-78
2022/12/31 01:46:45;;;;;;;7.78;1.15;;;10.60;99.90;;;;;;5030702;28;20040;-78
2022/12/31 01:49:38;;;;;;;8.20;0.93;;;10.60;99.90;;;;;;5034724;28;20502;-79
2022/12/31 01:52:09;;;;;;;16.42;1.45;;;10.60;99.90;;;;;;4986609;28;20065;-78
2022/12/31 01:54:40;;;;;;;12.77;1.20;;;10.60;99.90;;;;;;5038076;28;20756;-79
2022/12/31 01:57:06;;;;;;;;;;;10.60;99.90;;;;;;5022726;28;20026;-78
2022/12/31 01:59:32;;;;;;;9.25;1.45;;;10.70;99.90;;;;;;5023484;28;19928;-78
2022/12/31 02:01:59;;;;;;;5.90;0.82;;;10.60;99.90;;;;;;5014246;28;20033;-79
2022/12/31 02:04:26;;;;;;;4.68;0.90;;;10.60;99.90;;;;;;5039307;28;20040;-78
2022/12/31 02:07:01;;;;;;;7.22;0.90;;;10.60;99.90;;;;;;5021791;28;20044;-79
2022/12/31 02:09:27;;;;;;;3.88;0.80;;;10.60;99.90;;;;;;5023058;28;20061;-78
2022/12/31 02:11:52;;;;;;;5.10;0.40;;;10.60;99.90;;;;;;5029112;28;20032;-79
2022/12/31 02:14:41;;;;;;;7.82;0.63;;;10.60;99.90;;;;;;5025143;28;20033;-79
2022/12/31 02:17:27;;;;;;;3.25;0.40;;;10.60;99.90;;;;;;5027600;28;20547;-78
2022/12/31 02:20:14;;;;;;;4.38;0.60;;;10.60;99.90;;;;;;5028376;28;20060;-78
2022/12/31 02:23:05;;;;;;;3.50;0.40;;;10.60;99.90;;;;;;5027939;28;20096;-79
2022/12/31 02:26:00;;;;;;;3.85;0.73;;;10.60;99.90;;;;;;5023029;28;20057;-79
2022/12/31 02:28:58;;;;;;;4.78;0.82;;;10.60;99.90;;;;;;5009550;28;20758;-78
2022/12/31 02:31:38;;;;;;;2.88;0.70;;;10.70;99.90;;;;;;4986157;28;20087;-78
2022/12/31 02:34:31;;;;;;;3.83;1.00;;;10.70;99.90;;;;;;5019016;28;20519;-78
2022/12/31 02:36:59;;;;;;;3.97;0.80;;;10.60;99.90;;;;;;4999147;28;20048;-78
2022/12/31 02:39:25;;;;;;;4.60;0.85;;;10.70;99.90;;;;;;5014189;28;20201;-78
2022/12/31 02:41:52;;;;;;;5.20;1.02;;;10.70;99.90;;;;;;5042459;28;20040;-78
2022/12/31 02:44:23;;;;;;;4.00;0.80;;;10.70;99.90;;;;;;5037939;28;20329;-79
2022/12/31 02:47:07;;;;;;;5.70;1.07;;;10.70;99.90;;;;;;5031955;28;20515;-79
2022/12/31 02:49:57;;;;;;;5.20;1.23;;;10.70;99.90;;;;;;5012381;28;20103;-78
2022/12/31 02:52:48;;;;;;;4.40;0.88;;;10.80;99.90;;;;;;5030000;28;20561;-79
2022/12/31 02:55:36;;;;;;;1.88;0.70;;;10.80;99.90;;;;;;5026079;28;20089;-78
2022/12/31 02:58:19;;;;;;;5.20;1.20;;;10.90;99.90;;;;;;5005175;28;20034;-79
2022/12/31 03:03:35;;;;;;;3.53;0.80;;;10.90;99.90;;;;;;5023619;28;20044;-79
2022/12/31 03:06:03;;;;;;;1.92;0.82;;;11.00;99.90;;;;;;5036505;28;20113;-78
2022/12/31 03:08:29;;;;;;;0.85;0.35;;;11.00;99.90;;;;;;5030043;28;20558;-79
2022/12/31 03:10:55;;;;;;;4.20;0.90;;;11.00;99.90;;;;;;5039775;28;20016;-79
2022/12/31 03:13:22;;;;;;;6.07;1.10;;;11.00;99.90;;;;;;5022622;28;20040;-78
2022/12/31 03:15:48;;;;;;;5.72;1.05;;;11.10;99.90;;;;;;5027728;28;20476;-78
2022/12/31 03:22:26;;;;;;;4.22;0.88;;;11.10;99.90;;;;;;5042383;28;20094;-79
2022/12/31 03:26:39;;;;;;;8.93;1.63;;;11.10;99.90;;;;;;5039356;28;20542;-78
2022/12/31 03:29:04;;;;;;;12.02;2.00;;;11.20;99.90;;;;;;5042442;28;20045;-79
2022/12/31 03:31:30;;;;;;;8.82;1.90;;;11.20;99.90;;;;;;5038205;28;20059;-79
2022/12/31 03:33:56;;;;;;;8.73;1.60;;;11.20;99.90;;;;;;5037397;28;20025;-79
2022/12/31 03:36:21;;;;;;;10.00;1.40;;;11.20;99.90;;;;;;5002793;28;20784;-78
2022/12/31 03:38:47;;;;;;;6.93;1.70;;;11.20;99.90;;;;;;5027247;28;20065;-78
2022/12/31 03:41:12;;;;;;;8.32;1.42;;;11.30;99.90;;;;;;5026702;28;20028;-78
2022/12/31 03:43:38;;;;;;;6.80;1.45;;;11.40;99.90;;;;;;5025923;28;20074;-79
2022/12/31 03:46:04;;;;;;;8.02;1.38;;;11.50;99.90;;;;;;5021641;28;20064;-78
2022/12/31 03:48:29;;;;;;;7.38;0.93;;;11.60;99.90;;;;;;5025059;28;20575;-79
2022/12/31 03:50:55;;;;;;;4.65;1.30;;;11.60;99.90;;;;;;5022007;28;20033;-79
2022/12/31 03:53:21;;;;;;;3.28;0.75;;;11.60;99.90;;;;;;5026960;28;20024;-79
2022/12/31 03:55:51;;;;;;;5.88;0.45;;;11.70;99.90;;;;;;5022491;28;20026;-79
2022/12/31 03:58:17;;;;;;;2.23;0.60;;;11.80;99.90;;;;;;5007365;28;20038;-78
2022/12/31 04:00:42;;;;;;;6.43;0.60;;;11.90;99.90;;;;;;5026060;28;20041;-78
2022/12/31 04:03:08;;;;;;;5.85;0.95;;;12.10;99.90;;;;;;5003272;28;20028;-79
2022/12/31 04:05:34;;;;;;;9.95;1.00;;;12.20;99.90;;;;;;5009884;28;20064;-78
2022/12/31 04:07:59;;;;;;;6.50;1.02;;;12.30;99.90;;;;;;5027646;28;20567;-79
2022/12/31 04:10:25;;;;;;;8.02;0.90;;;12.30;99.90;;;;;;5027676;28;20045;-79
2022/12/31 04:12:51;;;;;;;5.82;1.45;;;12.40;99.90;;;;;;5011770;28;20094;-78
2022/12/31 04:15:19;;;;;;;6.85;0.90;;;12.50;99.90;;;;;;5018527;28;20038;-78
2022/12/31 04:17:46;;;;;;;7.05;1.00;;;12.50;99.90;;;;;;5041386;28;20035;-79
2022/12/31 04:20:12;;;;;;;8.60;1.15;;;12.60;99.90;;;;;;5019399;28;20036;-79
2022/12/31 04:22:38;;;;;;;5.65;0.90;;;12.60;99.90;;;;;;5006072;28;20022;-79
2022/12/31 04:25:09;;;;;;;14.70;1.20;;;12.60;99.90;;;;;;5019743;28;20051;-78
2022/12/31 04:27:37;;;;;;;8.57;1.40;;;12.70;99.90;;;;;;5017952;28;20033;-79
2022/12/31 04:30:03;;;;;;;11.65;1.55;;;12.70;99.90;;;;;;5035892;28;20054;-78
2022/12/31 04:32:28;;;;;;;10.13;1.20;;;12.80;99.90;;;;;;5038955;28;20440;-79
2022/12/31 04:34:54;;;;;;;13.60;1.63;;;12.80;99.90;;;;;;5029898;28;20460;-77
2022/12/31 04:37:19;;;;;;;11.18;1.30;;;12.80;99.90;;;;;;5017752;28;20039;-80
2022/12/31 04:39:45;;;;;;;10.38;1.40;;;12.90;99.90;;;;;;4999408;28;20936;-79
2022/12/31 04:42:11;;;;;;;16.55;1.23;;;12.90;99.90;;;;;;5002386;28;20037;-79
2022/12/31 04:44:36;;;;;;;12.90;1.30;;;12.90;99.90;;;;;;5014885;28;20033;-78
2022/12/31 04:47:02;;;;;;;15.57;1.75;;;12.90;99.90;;;;;;5017093;28;20136;-79
2022/12/31 04:49:28;;;;;;;12.57;0.98;;;12.90;99.90;;;;;;5040292;28;20083;-79
2022/12/31 04:51:53;;;;;;;12.73;1.40;;;12.80;99.90;;;;;;5006748;28;20041;-78
2022/12/31 04:54:19;;;;;;;15.02;1.50;;;12.90;99.90;;;;;;5023940;28;20455;-79
2022/12/31 04:56:44;;;;;;;10.50;1.48;;;12.90;99.90;;;;;;5010590;28;20059;-79
2022/12/31 04:59:10;;;;;;;18.52;1.67;;;12.80;99.90;;;;;;5030186;28;20046;-79
2022/12/31 05:01:37;;;;;;;15.63;1.50;;;12.90;99.90;;;;;;5037769;28;20021;-79
2022/12/31 05:04:03;;;;;;;15.27;1.50;;;12.90;99.90;;;;;;5010748;28;20037;-79
2022/12/31 05:06:28;;;;;;;19.77;1.42;;;13.00;99.90;;;;;;5010349;28;20036;-79
2022/12/31 05:08:54;;;;;;;17.00;1.88;;;13.00;99.90;;;;;;5028199;28;20164;-79
2022/12/31 05:11:20;;;;;;;14.77;1.92;;;13.00;99.90;;;;;;5028532;28;20033;-78
2022/12/31 05:13:45;;;;;;;12.25;1.80;;;13.00;99.90;;;;;;5016528;28;20140;-79
2022/12/31 05:16:11;;;;;;;15.32;1.95;;;13.00;99.90;;;;;;5010452;28;20136;-78
2022/12/31 05:18:37;;;;;;;17.17;1.50;;;13.00;99.90;;;;;;5034798;28;20053;-79
2022/12/31 05:21:03;;;;;;;23.33;2.10;;;13.00;99.90;;;;;;5009190;28;20041;-79
2022/12/31 05:23:29;;;;;;;11.20;1.70;;;13.00;99.90;;;;;;4997697;28;20049;-78
2022/12/31 05:25:55;;;;;;;14.20;2.28;;;13.00;99.90;;;;;;5037501;28;20208;-78
2022/12/31 05:28:21;;;;;;;22.25;2.65;;;12.90;99.90;;;;;;5028708;28;20025;-79
2022/12/31 05:30:49;;;;;;;23.40;2.45;;;12.90;99.90;;;;;;5028014;28;20064;-78
2022/12/31 05:33:14;;;;;;;19.15;1.98;;;12.80;99.90;;;;;;5043342;28;20045;-79
2022/12/31 05:35:40;;;;;;;31.17;2.70;;;12.70;99.90;;;;;;5028885;28;20112;-79
2022/12/31 05:38:06;;;;;;;18.80;2.28;;;12.60;99.90;;;;;;5008091;28;20029;-79
2022/12/31 05:40:32;;;;;;;15.93;2.30;;;12.70;99.90;;;;;;5004872;28;20037;-78
2022/12/31 05:42:58;;;;;;;21.95;2.78;;;12.60;99.90;;;;;;5040423;28;20086;-78
2022/12/31 05:45:24;;;;;;;17.52;2.20;;;12.60;99.90;;;;;;5030586;28;20138;-78
2022/12/31 05:47:49;;;;;;;20.67;2.35;;;12.70;99.90;;;;;;4992749;28;20136;-79
2022/12/31 05:50:15;;;;;;;22.85;2.63;;;12.70;99.90;;;;;;5044570;28;20044;-79
2022/12/31 05:52:42;;;;;;;25.75;2.42;;;12.70;99.90;;;;;;5031305;28;20131;-78
2022/12/31 05:55:08;;;;;;;28.60;2.80;;;12.80;99.90;;;;;;5010678;28;20034;-78
2022/12/31 05:57:34;;;;;;;25.48;3.08;;;12.70;99.90;;;;;;5041166;28;20082;-79
2022/12/31 06:00:00;;;;;;;19.77;2.72;;;12.70;99.90;;;;;;5013245;28;20069;-79
2022/12/31 06:02:26;;;;;;;19.55;2.80;;;12.70;99.90;;;;;;5023704;28;20150;-79
2022/12/31 06:04:51;;;;;;;23.00;2.80;;;12.70;99.90;;;;;;5024780;28;20075;-78
2022/12/31 06:07:17;;;;;;;16.58;2.30;;;12.80;99.90;;;;;;5010059;28;20467;-78
2022/12/31 06:09:43;;;;;;;14.82;2.38;;;12.80;99.90;;;;;;5042263;28;20027;-79
2022/12/31 06:12:08;;;;;;;21.05;2.08;;;12.80;99.90;;;;;;5019753;28;20040;-79
2022/12/31 06:14:34;;;;;;;22.88;2.45;;;12.70;99.90;;;;;;5038886;28;20032;-79
2022/12/31 06:17:00;;;;;;;22.10;2.25;;;12.80;99.90;;;;;;5036227;28;20108;-79
2022/12/31 06:19:26;;;;;;;23.08;2.95;;;12.90;99.90;;;;;;5042216;28;20142;-79
2022/12/31 06:21:51;;;;;;;12.85;2.33;;;12.80;99.90;;;;;;5041954;28;20037;-78
2022/12/31 06:24:17;;;;;;;17.75;2.65;;;12.80;99.90;;;;;;5043104;28;20159;-78
2022/12/31 06:26:43;;;;;;;17.90;2.20;;;12.80;99.90;;;;;;5021582;28;20044;-79
2022/12/31 06:29:09;;;;;;;19.13;2.22;;;12.90;99.90;;;;;;5021936;28;20041;-78
2022/12/31 06:31:35;;;;;;;20.90;2.30;;;12.90;99.90;;;;;;5039570;28;20030;-79
2022/12/31 06:34:01;;;;;;;27.83;2.65;;;12.90;99.90;;;;;;5025598;28;20031;-79
2022/12/31 06:36:27;;;;;;;23.33;2.80;;;12.90;99.90;;;;;;5031317;28;20110;-79
2022/12/31 06:38:52;;;;;;;22.73;2.33;;;12.90;99.90;;;;;;5034785;28;20052;-78
2022/12/31 06:41:18;;;;;;;26.05;2.33;;;12.80;99.90;;;;;;5023187;28;20061;-78
2022/12/31 06:43:45;;;;;;;27.30;2.67;;;12.80;99.90;;;;;;5036732;28;20064;-78
2022/12/31 06:46:14;;;;;;;28.58;3.83;;;12.70;99.90;;;;;;5018934;28;20152;-80
2022/12/31 06:48:42;;;;;;;17.88;2.47;;;12.70;99.90;;;;;;5013148;28;20033;-79
2022/12/31 06:51:16;;;;;;;24.00;2.22;;;12.80;99.90;;;;;;5021087;28;20087;-80
2022/12/31 06:53:41;;;;;;;23.52;2.60;;;12.80;99.90;;;;;;5031830;28;20125;-79
2022/12/31 06:56:12;;;;;;;29.25;3.08;;;12.80;99.90;;;;;;5006114;28;20132;-79
2022/12/31 06:58:38;;;;;;;25.37;2.83;;;12.80;99.90;;;;;;5017017;28;20051;-80
2022/12/31 07:01:37;;;;;;;28.25;2.40;;;12.90;99.90;;;;;;5015012;28;20281;-80
2022/12/31 07:04:25;;;;;;;21.45;2.33;;;12.90;99.90;;;;;;4976309;28;20057;-80
2022/12/31 07:07:09;;;;;;;13.05;1.70;;;12.90;99.90;;;;;;5000343;28;20029;-80
2022/12/31 07:09:39;;;;;;;23.02;1.98;;;12.90;99.90;;;;;;5002478;28;20037;-81
2022/12/31 07:12:36;;;;;;;19.60;2.38;;;12.90;99.90;;;;;;5024376;28;20107;-80
2022/12/31 07:15:08;;;;;;;19.42;2.25;;;13.00;99.90;;;;;;5006314;28;20068;-80
2022/12/31 07:17:41;;;;;;;21.60;2.50;;;13.00;99.90;;;;;;5026541;28;20036;-80
2022/12/31 07:20:14;;;;;;;19.58;1.90;;;13.10;99.90;;;;;;5024720;28;20043;-81
2022/12/31 07:22:40;;;;;;;19.58;2.40;;;13.10;99.90;;;;;;5023167;28;20770;-80
2022/12/31 07:25:06;;;;;;;20.50;2.17;;;13.10;99.90;;;;;;5021937;28;20028;-80
2022/12/31 07:27:48;;;;;;;20.77;1.90;;;13.10;99.90;;;;;;5005049;28;20029;-80
2022/12/31 07:30:20;;;;;;;18.15;2.03;;;13.10;99.90;;;;;;5003343;28;20065;-79
2022/12/31 07:33:05;;;;;;;19.83;2.13;;;13.20;99.90;;;;;;5022914;28;20159;-80
2022/12/31 07:35:55;;;;;;;11.38;1.90;;;13.20;99.90;;;;;;5035658;28;20037;-80
2022/12/31 07:38:30;;;;;;;15.98;2.38;;;13.30;99.90;;;;;;5005090;28;20136;-81
2022/12/31 07:41:02;;;;;;;22.27;2.47;;;13.40;99.90;;;;;;5034100;28;20025;-81
2022/12/31 07:43:40;;;;;;;14.65;1.85;;;13.40;99.90;;;;;;5005128;28;20703;-81
2022/12/31 07:46:32;;;;;;;15.60;2.03;;;13.40;99.90;;;;;;4664734;28;10000022;-81
2022/12/31 07:48:58;;;;;;;19.38;2.75;;;13.40;99.90;;;;;;5021392;28;20037;-80
2022/12/31 07:51:24;;;;;;;21.42;2.40;;;13.30;99.90;;;;;;4997343;28;20026;-81
2022/12/31 07:53:50;;;;;;;20.38;2.17;;;13.30;99.90;;;;;;5023746;28;20091;-81
2022/12/31 07:56:16;;;;;;;20.15;2.78;;;13.30;99.90;;;;;;5019218;28;20476;-80
2022/12/31 07:59:06;;;;;;;14.23;2.20;;;13.30;99.90;;;;;;5027397;28;20570;-79
2022/12/31 08:01:53;;;;;;;19.75;2.00;;;13.20;99.90;;;;;;5022289;28;20163;-78
2022/12/31 08:04:48;;;;;;;20.45;2.85;;;13.10;99.90;;;;;;5032368;28;20043;-79
2022/12/31 08:07:45;;;;;;;23.42;2.88;;;13.20;99.90;;;;;;5006862;28;20124;-80
2022/12/31 08:10:26;;;;;;;15.68;2.03;;;13.20;99.90;;;;;;5006353;28;20033;-79
2022/12/31 08:13:00;;;;;;;16.88;2.33;;;13.20;99.90;;;;;;5001345;28;20063;-79
2022/12/31 08:15:26;;;;;;;23.02;2.70;;;13.20;99.90;;;;;;5024811;28;20036;-80
2022/12/31 08:17:52;;;;;;;26.42;2.90;;;13.20;99.90;;;;;;5015037;28;20040;-80
2022/12/31 08:20:18;;;;;;;20.42;2.65;;;13.20;99.90;;;;;;5001786;28;20033;-80
2022/12/31 08:23:08;;;;;;;27.20;3.33;;;13.10;99.90;;;;;;4997156;28;20041;-80
2022/12/31 08:26:02;;;;;;;26.48;2.92;;;13.10;99.90;;;;;;5037385;28;20033;-80
2022/12/31 08:28:59;;;;;;;22.50;2.83;;;13.10;99.90;;;;;;5003979;28;20476;-80
2022/12/31 08:32:02;;;;;;;29.17;3.53;;;13.10;99.90;;;;;;5016858;28;20160;-80
2022/12/31 08:34:32;;;;;;;22.00;3.03;;;13.00;99.90;;;;;;5004751;28;20045;-79
2022/12/31 08:37:07;;;;;;;30.42;3.80;;;13.00;99.90;;;;;;5005993;28;20117;-80
2022/12/31 08:39:54;;;;;;;28.58;3.58;;;13.00;99.90;;;;;;5014585;28;20167;-79
2022/12/31 08:42:42;;;;;;;24.05;2.63;;;13.10;99.90;;;;;;5028974;28;20041;-80
2022/12/31 08:45:27;;;;;;;23.15;2.90;;;13.20;99.90;;;;;;5023668;28;20028;-80
2022/12/31 08:47:58;;;;;;;19.77;2.80;;;13.10;99.90;;;;;;4998496;28;20041;-79
2022/12/31 08:50:24;;;;;;;;;;;13.10;99.90;;;;;;5034534;28;20038;-80
2022/12/31 08:52:50;;;;;;;12.77;1.92;;;13.00;99.90;;;;;;5011349;28;19913;-80
2022/12/31 08:55:17;;;;;;;17.58;2.00;;;13.00;99.90;;;;;;5019719;28;20080;-80
2022/12/31 08:58:01;;;;;;;12.95;1.42;;;13.00;99.90;;;;;;5027754;28;20138;-81
2022/12/31 09:00:29;;;;;;;14.45;1.67;;;12.90;99.90;;;;;;5021532;28;20145;-79
2022/12/31 09:03:03;;;;;;;17.73;2.08;;;13.00;99.90;;;;;;5003385;28;20111;-79
2022/12/31 09:05:44;;;;;;;18.70;2.03;;;12.90;99.90;;;;;;5036936;28;20029;-80
2022/12/31 09:08:40;;;;;;;21.13;1.90;;;12.90;99.90;;;;;;5023724;28;20124;-80
2022/12/31 09:11:27;;;;;;;13.05;1.65;;;12.90;99.90;;;;;;5008771;28;20102;-79
2022/12/31 09:14:11;;;;;;;9.85;1.40;;;13.00;99.90;;;;;;4984011;28;20466;-79
2022/12/31 09:17:03;;;;;;;8.45;1.75;;;13.00;99.90;;;;;;4990304;28;20044;-80
2022/12/31 09:19:29;;;;;;;13.80;1.70;;;12.90;99.90;;;;;;5009409;28;20110;-80
2022/12/31 09:21:55;;;;;;;12.13;1.92;;;12.90;99.90;;;;;;5035856;28;20026;-81
2022/12/31 09:24:21;;;;;;;17.60;1.85;;;12.90;99.90;;;;;;5004275;28;20040;-80
2022/12/31 09:27:01;;;;;;;13.25;2.05;;;12.90;99.90;;;;;;5006254;28;20025;-79
2022/12/31 09:29:42;;;;;;;12.17;1.93;;;12.80;99.90;;;;;;5017739;28;20357;-79
2022/12/31 09:32:19;;;;;;;16.88;2.25;;;12.80;99.90;;;;;;5004178;28;20022;-79
2022/12/31 09:34:56;;;;;;;14.65;2.13;;;12.70;99.90;;;;;;5001270;28;20057;-80
2022/12/31 09:37:36;;;;;;;12.60;1.92;;;12.70;99.90;;;;;;5019163;28;20041;-79
2022/12/31 09:40:36;;;;;;;20.37;2.30;;;12.70;99.90;;;;;;5021279;28;20486;-80
2022/12/31 09:43:44;;;;;;;15.05;1.85;;;12.60;99.90;;;;;;5024494;28;20104;-80
2022/12/31 09:46:37;;;;;;;14.80;2.22;;;12.60;99.90;;;;;;4987515;28;20030;-79
2022/12/31 09:49:11;;;;;;;23.05;1.98;;;12.50;99.90;;;;;;5037404;28;20116;-80
2022/12/31 09:51:51;;;;;;;14.77;1.60;;;12.50;99.90;;;;;;5030384;28;20022;-79
2022/12/31 09:54:17;;;;;;;10.07;1.52;;;12.40;99.90;;;;;;5004733;28;20034;-79
2022/12/31 09:57:06;;;;;;;12.27;1.42;;;12.30;99.90;;;;;;5038491;28;20025;-79
2022/12/31 09:59:38;;;;;;;13.65;1.23;;;12.30;99.90;;;;;;5006195;28;20056;-79
2022/12/31 10:02:21;;;;;;;14.23;1.50;;;12.30;99.90;;;;;;5024537;28;20108;-79
2022/12/31 10:05:02;;;;;;;7.63;1.20;;;12.20;99.90;;;;;;5023162;28;20048;-78
2022/12/31 10:07:43;;;;;;;8.52;1.27;;;12.30;99.90;;;;;;5010220;28;20487;-79
2022/12/31 10:10:17;;;;;;;10.93;1.20;;;12.30;99.90;;;;;;5042222;28;20041;-78
2022/12/31 10:13:04;;;;;;;13.15;1.23;;;12.30;99.90;;;;;;5032807;28;20136;-79
2022/12/31 10:16:11;;;;;;;9.75;1.50;;;12.30;99.90;;;;;;5026493;28;20449;-80
2022/12/31 10:18:58;;;;;;;8.18;0.88;;;12.40;99.90;;;;;;4984427;28;20343;-80
2022/12/31 10:21:45;;;;;;;9.55;2.65;;;12.40;99.90;;;;;;5033719;28;20037;-79
2022/12/31 10:24:23;;;;;;;9.88;1.85;;;12.50;99.90;;;;;;5024597;28;20148;-80
2022/12/31 10:27:22;;;;;;;20.20;1.98;;;12.60;99.90;;;;;;5035608;28;20067;-79
2022/12/31 10:29:57;;;;;;;16.33;1.92;;;12.80;99.90;;;;;;5018643;28;20076;-80
2022/12/31 10:32:39;;;;;;;17.25;2.00;;;12.80;99.90;;;;;;5025159;28;20029;-80
2022/12/31 10:35:17;;;;;;;9.45;1.45;;;12.80;99.90;;;;;;5003949;28;20057;-79
2022/12/31 10:38:12;;;;;;;6.32;0.95;;;12.90;99.90;;;;;;5023446;28;20103;-79
2022/12/31 10:41:03;;;;;;;3.38;1.27;;;12.90;99.90;;;;;;5024599;28;20124;-79
2022/12/31 10:44:06;;;;;;;6.45;1.02;;;12.90;99.90;;;;;;4992749;28;20030;-79
2022/12/31 10:46:59;;;;;;;10.45;1.52;;;12.90;99.90;;;;;;5003523;28;20068;-79
2022/12/31 10:49:40;;;;;;;24.88;2.95;;;12.90;99.90;;;;;;5019786;28;20611;-79
2022/12/31 10:52:11;;;;;;;19.90;3.20;;;13.00;99.90;;;;;;5020896;28;20040;-79
2022/12/31 10:55:12;;;;;;;26.73;3.20;;;12.90;99.90;;;;;;5032442;28;20489;-79
2022/12/31 10:57:57;;;;;;;42.33;5.15;;;12.90;99.90;;;;;;4999013;28;20087;-79
2022/12/31 11:00:26;;;;;;;38.97;3.97;;;12.90;99.90;;;;;;5004983;28;20090;-80
2022/12/31 11:03:16;;;;;;;35.50;4.95;;;12.90;99.90;;;;;;5006001;28;20037;-80
2022/12/31 11:06:10;;;;;;;46.03;5.50;;;12.90;99.90;;;;;;5005664;28;20057;-80
2022/12/31 11:08:54;;;;;;;27.15;4.55;;;13.00;99.90;;;;;;4973978;28;20129;-79
2022/12/31 11:11:48;;;;;;;43.05;5.20;;;13.00;99.90;;;;;;5039931;28;20380;-79
2022/12/31 11:14:28;;;;;;;42.80;5.50;;;13.00;99.90;;;;;;4989194;28;20038;-79
2022/12/31 11:17:19;;;;;;;41.73;4.67;;;13.00;99.90;;;;;;5017286;28;20036;-79
2022/12/31 11:20:24;;;;;;;36.15;4.68;;;13.00;99.90;;;;;;5001666;28;20165;-80
2022/12/31 11:23:09;;;;;;;37.95;5.53;;;13.10;99.90;;;;;;5023421;28;20262;-79
2022/12/31 11:26:00;;;;;;;34.72;4.85;;;13.00;99.90;;;;;;5023403;28;20029;-79
2022/12/31 11:29:10;;;;;;;38.58;4.82;;;13.00;99.90;;;;;;5003356;28;20081;-80
2022/12/31 11:31:41;;;;;;;32.35;5.45;;;12.90;99.90;;;;;;4993202;28;20107;-79
2022/12/31 11:34:36;;;;;;;33.88;5.35;;;12.90;99.90;;;;;;5037548;23;20053;-67
2022/12/31 11:37:23;;;;;;;37.70;5.53;;;12.90;99.90;;;;;;5001488;28;20060;-70
2022/12/31 11:40:12;;;;;;;40.47;6.65;;;12.90;99.90;;;;;;5005160;28;20089;-68
2022/12/31 11:43:00;;;;;;;42.42;5.80;;;12.90;99.90;;;;;;5006604;28;20041;-67
2022/12/31 11:46:03;;;;;;;33.33;5.00;;;12.90;99.90;;;;;;5000489;28;20029;-67
2022/12/31 11:48:39;;;;;;;43.30;4.82;;;12.90;99.90;;;;;;5015240;28;20052;-68
2022/12/31 11:51:24;;;;;;;35.35;5.15;;;12.90;99.90;;;;;;5009587;28;20095;-68
2022/12/31 11:54:20;;;;;;;29.50;4.97;;;12.90;99.90;;;;;;5016439;28;20033;-67
2022/12/31 11:57:15;;;;;;;34.08;4.72;;;12.80;99.90;;;;;;4989545;28;20036;-67
2022/12/31 11:59:41;;;;;;;36.67;5.70;;;12.80;99.90;;;;;;4990334;28;20041;-67
2022/12/31 12:02:44;;;;;;;38.13;5.60;;;12.70;99.90;;;;;;4997104;28;20026;-67
2022/12/31 12:05:15;;;;;;;47.15;5.72;;;12.80;99.90;;;;;;4936818;28;20601;-68
2022/12/31 12:07:41;;;;;;;44.70;6.38;;;12.80;99.90;;;;;;4977572;28;20409;-67
2022/12/31 12:10:48;;;;;;;39.45;5.60;;;12.80;99.90;;;;;;5012400;28;20033;-67
2022/12/31 12:13:16;;;;;;;34.03;6.07;;;12.80;99.90;;;;;;4958656;28;20485;-67
2022/12/31 12:15:55;;;;;;;39.22;6.38;;;12.70;99.90;;;;;;5016927;28;20392;-67
2022/12/31 12:18:35;;;;;;;47.88;6.28;;;12.70;99.90;;;;;;4998902;28;20026;-67
2022/12/31 12:21:10;;;;;;;35.03;5.93;;;12.70;99.90;;;;;;5012824;28;20041;-67
2022/12/31 12:23:37;;;;;;;36.47;6.82;;;12.70;99.90;;;;;;5006720;28;20029;-67
2022/12/31 12:26:02;;;;;;;39.65;4.97;;;12.70;99.90;;;;;;5008725;28;20033;-67
2022/12/31 12:28:39;;;;;;;32.42;5.78;;;12.70;99.90;;;;;;5005699;28;20025;-69
2022/12/31 12:31:05;;;;;;;53.05;6.07;;;12.70;99.90;;;;;;5010098;28;20038;-68
2022/12/31 12:33:42;;;;;;;44.88;6.10;;;12.60;99.90;;;;;;4978445;28;20058;-69
2022/12/31 12:36:14;;;;;;;46.55;6.05;;;12.60;99.90;;;;;;4997230;28;20025;-69
2022/12/31 12:38:40;;;;;;;;;;;12.60;99.90;;;;;;4996184;28;20042;-69
2022/12/31 12:41:17;;;;;;;38.53;5.75;;;12.60;99.90;;;;;;4985584;28;20077;-69
2022/12/31 12:43:42;;;;;;;43.50;6.35;;;12.60;99.90;;;;;;4992183;28;20066;-69
2022/12/31 12:46:29;;;;;;;41.03;5.50;;;12.60;99.90;;;;;;5007008;28;20061;-69
2022/12/31 12:48:56;;;;;;;40.28;6.40;;;12.50;99.90;;;;;;5016806;28;20033;-69
2022/12/31 12:51:48;;;;;;;50.83;7.07;;;12.50;99.90;;;;;;5008947;28;20472;-70
2022/12/31 12:54:58;;;;;;;31.20;5.32;;;12.50;99.90;;;;;;5015404;28;20045;-70
2022/12/31 12:57:42;;;;;;;34.30;6.70;;;12.50;99.90;;;;;;4975975;28;20165;-69
2022/12/31 13:00:13;;;;;;;50.15;7.75;;;12.50;99.90;;;;;;4988988;28;20052;-69
2022/12/31 13:02:54;;;;;;;;;;;12.50;99.90;;;;;;4990479;28;20133;-69
2022/12/31 13:05:47;;;;;;;52.15;7.68;;;12.50;99.90;;;;;;4997626;28;19928;-69
2022/12/31 13:08:50;;;;;;;48.28;7.72;;;12.50;99.90;;;;;;5007812;28;20025;-69
2022/12/31 13:11:45;;;;;;;47.35;7.80;;;12.40;99.90;;;;;;4999147;28;20093;-68
2022/12/31 13:14:43;;;;;;;50.08;6.47;;;12.40;99.90;;;;;;5009494;28;20053;-69
2022/12/31 13:17:42;;;;;;;44.00;7.15;;;12.30;99.90;;;;;;4979647;28;20134;-69
2022/12/31 13:20:22;;;;;;;46.22;6.65;;;12.30;99.90;;;;;;4992493;28;20036;-69
2022/12/31 13:22:54;;;;;;;48.88;6.45;;;12.20;99.90;;;;;;4998329;28;20046;-69
2022/12/31 13:25:26;;;;;;;46.63;6.43;;;12.30;99.90;;;;;;5008405;28;20036;-67
2022/12/31 13:27:56;;;;;;;34.37;5.40;;;12.30;99.90;;;;;;4648562;28;10000202;-67